createdAt,value
2023-04-20T00:00:55.573Z,593.00
2023-04-20T00:01:55.636Z,595.00
2023-04-20T00:02:55.799Z,591.00
2023-04-20T00:03:56.074Z,589.00
2023-04-20T00:04:55.745Z,587.00
2023-04-20T00:05:55.809Z,595.00
2023-04-20T00:06:55.836Z,593.00
2023-04-20T00:07:55.851Z,590.00
2023-04-20T00:08:55.921Z,590.00
2023-04-20T00:09:55.942Z,590.00
2023-04-20T00:10:55.975Z,588.00
2023-04-20T00:11:56.036Z,591.00
2023-04-20T00:12:56.099Z,589.00
2023-04-20T00:13:56.120Z,585.00
2023-04-20T00:14:56.142Z,588.00
2023-04-20T00:15:56.200Z,591.00
2023-04-20T00:16:56.208Z,586.00
2023-04-20T00:17:56.285Z,592.00
2023-04-20T00:18:56.346Z,586.00
2023-04-20T00:19:56.330Z,590.00
2023-04-20T00:20:56.397Z,588.00
2023-04-20T00:21:56.395Z,588.00
2023-04-20T00:22:56.434Z,587.00
2023-04-20T00:23:56.530Z,589.00
2023-04-20T00:24:56.532Z,583.00
2023-04-20T00:25:56.600Z,586.00
2023-04-20T00:26:56.638Z,588.00
2023-04-20T00:27:56.686Z,594.00
2023-04-20T00:28:56.712Z,587.00
2023-04-20T00:29:56.781Z,588.00
2023-04-20T00:30:56.848Z,590.00
2023-04-20T00:31:56.916Z,589.00
2023-04-20T00:32:57.057Z,586.00
2023-04-20T00:33:57.006Z,587.00
2023-04-20T00:34:57.045Z,583.00
2023-04-20T00:35:57.038Z,588.00
2023-04-20T00:36:57.085Z,585.00
2023-04-20T00:37:57.146Z,587.00
2023-04-20T00:38:57.430Z,583.00
2023-04-20T00:39:57.195Z,585.00
2023-04-20T00:40:57.267Z,581.00
2023-04-20T00:41:57.271Z,579.00
2023-04-20T00:42:57.314Z,581.00
2023-04-20T00:43:57.422Z,581.00
2023-04-20T00:44:57.392Z,587.00
2023-04-20T00:45:57.455Z,580.00
2023-04-20T00:46:57.492Z,582.00
2023-04-20T00:47:57.621Z,580.00
2023-04-20T00:48:57.568Z,585.00
2023-04-20T00:49:57.646Z,584.00
2023-04-20T00:50:57.712Z,580.00
2023-04-20T00:51:57.741Z,580.00
2023-04-20T00:52:57.796Z,580.00
2023-04-20T00:53:57.861Z,578.00
2023-04-20T00:54:57.899Z,580.00
2023-04-20T00:55:57.939Z,582.00
2023-04-20T00:56:58.001Z,581.00
2023-04-20T00:57:58.102Z,577.00
2023-04-20T00:58:58.014Z,578.00
2023-04-20T00:59:58.078Z,577.00
2023-04-20T01:00:58.103Z,577.00
2023-04-20T01:01:58.288Z,579.00
2023-04-20T01:02:58.223Z,574.00
2023-04-20T01:03:58.328Z,572.00
2023-04-20T01:04:58.181Z,578.00
2023-04-20T01:05:58.163Z,578.00
2023-04-20T01:06:58.201Z,577.00
2023-04-20T01:07:58.207Z,576.00
2023-04-20T01:08:58.249Z,572.00
2023-04-20T01:09:58.230Z,574.00
2023-04-20T01:10:58.234Z,572.00
2023-04-20T01:11:58.258Z,575.00
2023-04-20T01:12:58.282Z,578.00
2023-04-20T01:13:58.439Z,575.00
2023-04-20T01:14:58.311Z,572.00
2023-04-20T01:15:58.371Z,573.00
2023-04-20T01:16:58.358Z,579.00
2023-04-20T01:17:58.477Z,574.00
2023-04-20T01:18:58.446Z,571.00
2023-04-20T01:19:58.444Z,572.00
2023-04-20T01:20:58.488Z,574.00
2023-04-20T01:21:58.542Z,572.00
2023-04-20T01:22:58.547Z,574.00
2023-04-20T01:23:58.591Z,570.00
2023-04-20T01:24:58.597Z,565.00
2023-04-20T01:25:58.682Z,572.00
2023-04-20T01:26:58.699Z,571.00
2023-04-20T01:27:58.706Z,572.00
2023-04-20T01:28:58.784Z,571.00
2023-04-20T01:29:58.841Z,569.00
2023-04-20T01:30:58.867Z,567.00
2023-04-20T01:31:58.953Z,570.00
2023-04-20T01:32:58.986Z,568.00
2023-04-20T01:33:59.022Z,567.00
2023-04-20T01:34:59.019Z,569.00
2023-04-20T01:35:59.071Z,566.00
2023-04-20T01:36:59.127Z,570.00
2023-04-20T01:37:59.163Z,566.00
2023-04-20T01:38:59.212Z,569.00
2023-04-20T01:39:59.276Z,568.00
2023-04-20T01:40:59.263Z,566.00
2023-04-20T01:41:59.326Z,571.00
2023-04-20T01:42:59.342Z,563.00
2023-04-20T01:43:59.421Z,566.00
2023-04-20T01:44:59.438Z,566.00
2023-04-20T01:45:59.500Z,563.00
2023-04-20T01:46:59.621Z,569.00
2023-04-20T01:47:59.612Z,566.00
2023-04-20T01:48:59.658Z,558.00
2023-04-20T01:49:59.635Z,564.00
2023-04-20T01:50:59.663Z,572.00
2023-04-20T01:51:59.718Z,566.00
2023-04-20T01:52:59.771Z,567.00
2023-04-20T01:53:59.834Z,564.00
2023-04-20T01:54:59.842Z,567.00
2023-04-20T01:55:59.876Z,566.00
2023-04-20T01:56:59.913Z,565.00
2023-04-20T01:57:59.964Z,561.00
2023-04-20T01:59:00.011Z,564.00
2023-04-20T02:00:00.052Z,560.00
2023-04-20T02:01:00.123Z,558.00
2023-04-20T02:02:00.174Z,566.00
2023-04-20T02:03:00.248Z,558.00
2023-04-20T02:04:00.345Z,563.00
2023-04-20T02:05:00.269Z,563.00
2023-04-20T02:06:00.273Z,561.00
2023-04-20T02:07:00.307Z,564.00
2023-04-20T02:08:00.352Z,559.00
2023-04-20T02:09:00.389Z,558.00
2023-04-20T02:10:00.441Z,561.00
2023-04-20T02:11:00.497Z,560.00
2023-04-20T02:12:00.550Z,559.00
2023-04-20T02:13:00.556Z,561.00
2023-04-20T02:14:00.579Z,558.00
2023-04-20T02:15:00.604Z,554.00
2023-04-20T02:16:00.677Z,558.00
2023-04-20T02:17:00.718Z,559.00
2023-04-20T02:18:00.747Z,559.00
2023-04-20T02:19:00.762Z,559.00
2023-04-20T02:20:00.815Z,558.00
2023-04-20T02:21:00.838Z,559.00
2023-04-20T02:22:00.887Z,561.00
2023-04-20T02:23:00.900Z,558.00
2023-04-20T02:24:00.970Z,559.00
2023-04-20T02:25:01.002Z,559.00
2023-04-20T02:26:01.021Z,561.00
2023-04-20T02:27:01.093Z,554.00
2023-04-20T02:28:01.106Z,560.00
2023-04-20T02:29:01.130Z,556.00
2023-04-20T02:30:01.180Z,558.00
2023-04-20T02:31:01.238Z,558.00
2023-04-20T02:32:01.286Z,561.00
2023-04-20T02:33:01.321Z,560.00
2023-04-20T02:34:01.314Z,550.00
2023-04-20T02:35:01.334Z,547.00
2023-04-20T02:36:01.370Z,555.00
2023-04-20T02:37:01.413Z,552.00
2023-04-20T02:38:01.437Z,555.00
2023-04-20T02:39:01.516Z,554.00
2023-04-20T02:40:01.533Z,555.00
2023-04-20T02:41:01.576Z,557.00
2023-04-20T02:42:01.641Z,549.00
2023-04-20T02:43:01.634Z,553.00
2023-04-20T02:44:01.663Z,556.00
2023-04-20T02:45:01.734Z,556.00
2023-04-20T02:46:01.785Z,553.00
2023-04-20T02:47:01.773Z,555.00
2023-04-20T02:48:01.843Z,553.00
2023-04-20T02:49:01.866Z,550.00
2023-04-20T02:50:01.898Z,550.00
2023-04-20T02:51:01.931Z,554.00
2023-04-20T02:52:01.952Z,555.00
2023-04-20T02:53:02.006Z,555.00
2023-04-20T02:54:02.524Z,553.00
2023-04-20T02:55:02.078Z,556.00
2023-04-20T02:56:02.087Z,550.00
2023-04-20T02:57:02.156Z,553.00
2023-04-20T02:58:02.172Z,553.00
2023-04-20T02:59:02.199Z,550.00
2023-04-20T03:00:02.232Z,553.00
2023-04-20T03:01:02.242Z,551.00
2023-04-20T03:02:02.407Z,552.00
2023-04-20T03:03:02.454Z,552.00
2023-04-20T03:04:02.458Z,552.00
2023-04-20T03:05:02.408Z,553.00
2023-04-20T03:06:02.425Z,548.00
2023-04-20T03:07:02.443Z,555.00
2023-04-20T03:08:02.478Z,550.00
2023-04-20T03:09:02.553Z,550.00
2023-04-20T03:10:02.563Z,551.00
2023-04-20T03:11:02.580Z,548.00
2023-04-20T03:12:02.614Z,553.00
2023-04-20T03:13:02.658Z,550.00
2023-04-20T03:14:02.688Z,550.00
2023-04-20T03:15:02.695Z,550.00
2023-04-20T03:16:02.798Z,548.00
2023-04-20T03:17:02.798Z,549.00
2023-04-20T03:18:02.822Z,548.00
2023-04-20T03:19:02.870Z,550.00
2023-04-20T03:20:02.879Z,546.00
2023-04-20T03:21:02.908Z,546.00
2023-04-20T03:22:02.940Z,542.00
2023-04-20T03:23:02.913Z,550.00
2023-04-20T03:24:02.956Z,548.00
2023-04-20T03:25:02.963Z,546.00
2023-04-20T03:26:03.011Z,546.00
2023-04-20T03:27:03.048Z,544.00
2023-04-20T03:28:03.058Z,550.00
2023-04-20T03:29:03.075Z,543.00
2023-04-20T03:30:03.108Z,547.00
2023-04-20T03:31:03.134Z,548.00
2023-04-20T03:32:03.224Z,545.00
2023-04-20T03:33:03.293Z,542.00
2023-04-20T03:34:03.245Z,548.00
2023-04-20T03:35:03.272Z,541.00
2023-04-20T03:36:03.294Z,547.00
2023-04-20T03:37:03.371Z,547.00
2023-04-20T03:38:03.348Z,543.00
2023-04-20T03:39:03.385Z,541.00
2023-04-20T03:40:03.421Z,545.00
2023-04-20T03:41:03.423Z,545.00
2023-04-20T03:42:03.448Z,546.00
2023-04-20T03:43:03.495Z,544.00
2023-04-20T03:44:03.564Z,539.00
2023-04-20T03:45:03.573Z,540.00
2023-04-20T03:46:03.631Z,542.00
2023-04-20T03:47:03.611Z,543.00
2023-04-20T03:48:03.670Z,538.00
2023-04-20T03:49:03.693Z,544.00
2023-04-20T03:50:03.689Z,536.00
2023-04-20T03:51:03.702Z,544.00
2023-04-20T03:52:03.689Z,544.00
2023-04-20T03:53:03.718Z,539.00
2023-04-20T03:54:03.774Z,542.00
2023-04-20T03:55:03.765Z,544.00
2023-04-20T03:56:03.761Z,543.00
2023-04-20T03:57:03.798Z,540.00
2023-04-20T03:58:03.829Z,539.00
2023-04-20T03:59:03.885Z,540.00
2023-04-20T04:00:03.891Z,537.00
2023-04-20T04:01:03.919Z,537.00
2023-04-20T04:02:03.971Z,542.00
2023-04-20T04:03:04.125Z,537.00
2023-04-20T04:04:04.255Z,540.00
2023-04-20T04:05:04.109Z,539.00
2023-04-20T04:06:04.053Z,541.00
2023-04-20T04:07:04.062Z,538.00
2023-04-20T04:08:04.155Z,538.00
2023-04-20T04:09:04.173Z,540.00
2023-04-20T04:10:04.192Z,537.00
2023-04-20T04:11:04.189Z,541.00
2023-04-20T04:12:04.233Z,539.00
2023-04-20T04:13:04.371Z,539.00
2023-04-20T04:14:04.289Z,538.00
2023-04-20T04:15:04.341Z,535.00
2023-04-20T04:16:04.322Z,539.00
2023-04-20T04:17:04.381Z,537.00
2023-04-20T04:18:04.454Z,533.00
2023-04-20T04:19:04.427Z,540.00
2023-04-20T04:20:04.434Z,538.00
2023-04-20T04:21:04.485Z,537.00
2023-04-20T04:22:04.495Z,533.00
2023-04-20T04:23:04.541Z,537.00
2023-04-20T04:24:04.530Z,531.00
2023-04-20T04:25:04.584Z,538.00
2023-04-20T04:26:04.609Z,533.00
2023-04-20T04:27:04.670Z,533.00
2023-04-20T04:28:04.648Z,532.00
2023-04-20T04:29:04.696Z,533.00
2023-04-20T04:30:04.707Z,533.00
2023-04-20T04:31:04.791Z,536.00
2023-04-20T04:32:04.777Z,537.00
2023-04-20T04:33:05.113Z,536.00
2023-04-20T04:34:05.517Z,530.00
2023-04-20T04:35:04.865Z,530.00
2023-04-20T04:36:04.888Z,537.00
2023-04-20T04:37:04.936Z,533.00
2023-04-20T04:38:04.948Z,532.00
2023-04-20T04:39:04.964Z,531.00
2023-04-20T04:40:04.979Z,529.00
2023-04-20T04:41:05.012Z,533.00
2023-04-20T04:42:05.073Z,534.00
2023-04-20T04:43:05.104Z,530.00
2023-04-20T04:44:05.153Z,531.00
2023-04-20T04:45:05.208Z,532.00
2023-04-20T04:46:05.211Z,532.00
2023-04-20T04:47:05.206Z,531.00
2023-04-20T04:48:07.992Z,532.00
2023-04-20T04:49:05.230Z,538.00
2023-04-20T04:50:05.211Z,531.00
2023-04-20T04:51:05.192Z,530.00
2023-04-20T04:52:05.206Z,528.00
2023-04-20T04:53:05.239Z,529.00
2023-04-20T04:54:05.521Z,528.00
2023-04-20T04:55:05.163Z,528.00
2023-04-20T04:56:05.171Z,523.00
2023-04-20T04:57:05.131Z,526.00
2023-04-20T04:58:05.374Z,525.00
2023-04-20T04:59:05.130Z,525.00
2023-04-20T05:00:05.103Z,526.00
2023-04-20T05:01:05.112Z,530.00
2023-04-20T05:02:05.155Z,526.00
2023-04-20T05:03:05.146Z,530.00
2023-04-20T05:04:05.236Z,520.00
2023-04-20T05:05:05.434Z,523.00
2023-04-20T05:06:05.081Z,521.00
2023-04-20T05:07:05.066Z,521.00
2023-04-20T05:08:05.063Z,526.00
2023-04-20T05:09:05.069Z,520.00
2023-04-20T05:10:05.045Z,519.00
2023-04-20T05:11:05.106Z,521.00
2023-04-20T05:12:05.070Z,527.00
2023-04-20T05:13:05.059Z,526.00
2023-04-20T05:14:06.042Z,517.00
2023-04-20T05:15:05.018Z,525.00
2023-04-20T05:16:04.997Z,518.00
2023-04-20T05:17:04.985Z,521.00
2023-04-20T05:18:05.064Z,519.00
2023-04-20T05:19:04.998Z,521.00
2023-04-20T05:20:04.991Z,524.00
2023-04-20T05:21:04.990Z,517.00
2023-04-20T05:22:05.004Z,520.00
2023-04-20T05:23:04.959Z,521.00
2023-04-20T05:24:04.997Z,516.00
2023-04-20T05:25:04.939Z,523.00
2023-04-20T05:26:04.918Z,516.00
2023-04-20T05:27:04.944Z,516.00
2023-04-20T05:28:04.974Z,514.00
2023-04-20T05:29:04.905Z,512.00
2023-04-20T05:30:18.940Z,506.00
2023-04-20T05:31:06.003Z,507.00
2023-04-20T05:32:05.043Z,508.00
2023-04-20T05:33:04.943Z,509.00
2023-04-20T05:34:05.267Z,502.00
2023-04-20T05:35:04.949Z,413.00
2023-04-20T05:36:04.860Z,400.00
2023-04-20T05:37:04.920Z,400.00
2023-04-20T05:38:04.847Z,400.00
2023-04-20T05:39:04.824Z,500.00
2023-04-20T05:40:04.834Z,519.00
2023-04-20T05:41:04.840Z,551.00
2023-04-20T05:42:04.850Z,568.00
2023-04-20T05:43:04.800Z,567.00
2023-04-20T05:44:04.828Z,593.00
2023-04-20T05:45:04.928Z,604.00
2023-04-20T05:46:04.837Z,622.00
2023-04-20T05:47:04.815Z,629.00
2023-04-20T05:48:04.924Z,634.00
2023-04-20T05:49:05.043Z,645.00
2023-04-20T05:50:04.939Z,660.00
2023-04-20T05:51:04.848Z,665.00
2023-04-20T05:52:04.882Z,658.00
2023-04-20T05:53:04.869Z,674.00
2023-04-20T05:54:05.050Z,677.00
2023-04-20T05:55:04.895Z,706.00
2023-04-20T05:56:04.865Z,713.00
2023-04-20T05:57:04.854Z,710.00
2023-04-20T05:58:04.859Z,710.00
2023-04-20T05:59:04.907Z,703.00
2023-04-20T06:00:04.979Z,722.00
2023-04-20T06:01:04.924Z,727.00
2023-04-20T06:02:05.061Z,729.00
2023-04-20T06:03:05.209Z,711.00
2023-04-20T06:04:05.212Z,724.00
2023-04-20T06:05:05.171Z,723.00
2023-04-20T06:06:05.035Z,737.00
2023-04-20T06:07:05.040Z,732.00
2023-04-20T06:08:05.095Z,712.00
2023-04-20T06:09:05.243Z,730.00
2023-04-20T06:10:05.145Z,720.00
2023-04-20T06:11:05.234Z,724.00
2023-04-20T06:12:05.292Z,717.00
2023-04-20T06:13:05.278Z,718.00
2023-04-20T06:14:05.320Z,735.00
2023-04-20T06:15:05.441Z,706.00
2023-04-20T06:16:05.505Z,714.00
2023-04-20T06:17:05.519Z,694.00
2023-04-20T06:18:05.631Z,690.00
2023-04-20T06:19:05.646Z,712.00
2023-04-20T06:20:05.702Z,728.00
2023-04-20T06:21:05.753Z,722.00
2023-04-20T06:22:05.819Z,706.00
2023-04-20T06:23:05.921Z,725.00
2023-04-20T06:24:06.007Z,735.00
2023-04-20T06:25:06.020Z,703.00
2023-04-20T06:26:06.058Z,718.00
2023-04-20T06:27:06.149Z,729.00
2023-04-20T06:28:06.239Z,746.00
2023-04-20T06:29:06.252Z,767.00
2023-04-20T06:30:06.306Z,791.00
2023-04-20T06:31:06.492Z,796.00
2023-04-20T06:32:06.391Z,805.00
2023-04-20T06:33:06.545Z,835.00
2023-04-20T06:34:06.641Z,858.00
2023-04-20T06:35:06.534Z,862.00
2023-04-20T06:36:06.615Z,913.00
2023-04-20T06:37:06.693Z,919.00
2023-04-20T06:38:06.701Z,922.00
2023-04-20T06:39:06.733Z,930.00
2023-04-20T06:40:06.872Z,924.00
2023-04-20T06:41:06.860Z,929.00
2023-04-20T06:42:06.860Z,946.00
2023-04-20T06:43:06.928Z,936.00
2023-04-20T06:44:08.600Z,918.00
2023-04-20T06:45:07.669Z,898.00
2023-04-20T06:46:07.149Z,907.00
2023-04-20T06:47:08.186Z,903.00
2023-04-20T06:48:14.140Z,884.00
2023-04-20T06:49:08.562Z,885.00
2023-04-20T06:50:07.279Z,859.00
2023-04-20T06:51:07.210Z,840.00
2023-04-20T06:52:07.211Z,844.00
2023-04-20T06:53:07.223Z,819.00
2023-04-20T06:54:07.584Z,824.00
2023-04-20T06:55:07.195Z,799.00
2023-04-20T06:56:07.224Z,787.00
2023-04-20T06:57:07.280Z,786.00
2023-04-20T06:58:07.390Z,789.00
2023-04-20T06:59:07.596Z,774.00
2023-04-20T07:00:07.444Z,767.00
2023-04-20T07:01:08.151Z,748.00
2023-04-20T07:02:07.580Z,754.00
2023-04-20T07:03:07.624Z,753.00
2023-04-20T07:04:07.646Z,746.00
2023-04-20T07:05:08.057Z,738.00
2023-04-20T07:06:07.499Z,729.00
2023-04-20T07:07:07.505Z,753.00
2023-04-20T07:08:07.517Z,741.00
2023-04-20T07:09:07.555Z,738.00
2023-04-20T07:10:07.619Z,743.00
2023-04-20T07:11:07.662Z,742.00
2023-04-20T07:12:07.676Z,737.00
2023-04-20T07:13:07.653Z,754.00
2023-04-20T07:14:07.676Z,751.00
2023-04-20T07:15:07.670Z,746.00
2023-04-20T07:16:07.779Z,744.00
2023-04-20T07:17:07.692Z,743.00
2023-04-20T07:18:07.840Z,748.00
2023-04-20T07:19:07.826Z,759.00
2023-04-20T07:20:07.754Z,745.00
2023-04-20T07:21:07.765Z,754.00
2023-04-20T07:22:07.822Z,746.00
2023-04-20T07:23:07.800Z,753.00
2023-04-20T07:24:08.075Z,757.00
2023-04-20T07:25:07.834Z,764.00
2023-04-20T07:26:07.846Z,775.00
2023-04-20T07:27:07.861Z,768.00
2023-04-20T07:28:07.865Z,767.00
2023-04-20T07:29:07.919Z,760.00
2023-04-20T07:30:07.923Z,741.00
2023-04-20T07:31:07.927Z,762.00
2023-04-20T07:32:08.020Z,777.00
2023-04-20T07:33:07.968Z,767.00
2023-04-20T07:34:08.075Z,796.00
2023-04-20T07:35:08.013Z,828.00
2023-04-20T07:36:08.069Z,809.00
2023-04-20T07:37:08.148Z,820.00
2023-04-20T07:38:08.266Z,828.00
2023-04-20T07:39:08.242Z,847.00
2023-04-20T07:40:08.318Z,887.00
2023-04-20T07:41:08.320Z,943.00
2023-04-20T07:42:08.400Z,963.00
2023-04-20T07:43:08.550Z,997.00
2023-04-20T07:44:08.500Z,1025.00
2023-04-20T07:45:08.522Z,1053.00
2023-04-20T07:46:08.681Z,1075.00
2023-04-20T07:47:08.601Z,1065.00
2023-04-20T07:48:08.643Z,1057.00
2023-04-20T07:49:09.088Z,1099.00
2023-04-20T07:50:08.664Z,1209.00
2023-04-20T07:51:08.693Z,1172.00
2023-04-20T07:52:16.526Z,1167.00
2023-04-20T07:53:09.735Z,1169.00
2023-04-20T07:54:08.730Z,1172.00
2023-04-20T07:55:08.706Z,1177.00
2023-04-20T07:56:08.716Z,1208.00
2023-04-20T07:57:08.682Z,1234.00
2023-04-20T07:58:08.701Z,1244.00
2023-04-20T07:59:09.129Z,1289.00
2023-04-20T08:00:08.924Z,1295.00
2023-04-20T08:01:08.709Z,1243.00
2023-04-20T08:02:08.801Z,1241.00
2023-04-20T08:03:08.978Z,1234.00
2023-04-20T08:04:09.481Z,1256.00
2023-04-20T08:05:11.803Z,1264.00
2023-04-20T08:06:08.648Z,1284.00
2023-04-20T08:07:08.732Z,1267.00
2023-04-20T08:08:08.661Z,1271.00
2023-04-20T08:09:08.669Z,1275.00
2023-04-20T08:10:08.653Z,1258.00
2023-04-20T08:11:08.603Z,1286.00
2023-04-20T08:12:08.585Z,1279.00
2023-04-20T08:13:08.623Z,1279.00
2023-04-20T08:14:08.595Z,1281.00
2023-04-20T08:15:08.662Z,1273.00
2023-04-20T08:16:08.609Z,1283.00
2023-04-20T08:17:08.599Z,1283.00
2023-04-20T08:18:08.595Z,1281.00
2023-04-20T08:19:08.562Z,1282.00
2023-04-20T08:20:08.574Z,1277.00
2023-04-20T08:21:08.604Z,1279.00
2023-04-20T08:22:08.535Z,1265.00
2023-04-20T08:23:08.507Z,1282.00
2023-04-20T08:24:08.628Z,1254.00
2023-04-20T08:25:08.557Z,1227.00
2023-04-20T08:26:08.582Z,1219.00
2023-04-20T08:27:08.490Z,1239.00
2023-04-20T08:28:12.218Z,1224.00
2023-04-20T08:29:10.100Z,1225.00
2023-04-20T08:30:08.704Z,1225.00
2023-04-20T08:31:08.735Z,1220.00
2023-04-20T08:32:08.729Z,1219.00
2023-04-20T08:33:08.854Z,1221.00
2023-04-20T08:34:08.881Z,1223.00
2023-04-20T08:35:08.885Z,1228.00
2023-04-20T08:36:08.896Z,1214.00
2023-04-20T08:37:08.912Z,1207.00
2023-04-20T08:38:08.980Z,1205.00
2023-04-20T08:39:09.067Z,1206.00
2023-04-20T08:40:09.069Z,1176.00
2023-04-20T08:41:09.140Z,1207.00
2023-04-20T08:42:09.220Z,1173.00
2023-04-20T08:43:09.234Z,1141.00
2023-04-20T08:44:09.725Z,1124.00
2023-04-20T08:45:09.314Z,1123.00
2023-04-20T08:46:09.376Z,1109.00
2023-04-20T08:47:09.410Z,1098.00
2023-04-20T08:48:09.525Z,1098.00
2023-04-20T08:49:09.659Z,1095.00
2023-04-20T08:50:09.562Z,1101.00
2023-04-20T08:51:09.691Z,1095.00
2023-04-20T08:52:09.756Z,1091.00
2023-04-20T08:53:12.590Z,1093.00
2023-04-20T08:54:10.138Z,1106.00
2023-04-20T08:55:09.707Z,1100.00
2023-04-20T08:56:09.652Z,1086.00
2023-04-20T08:57:09.654Z,1088.00
2023-04-20T08:58:09.678Z,1098.00
2023-04-20T08:59:09.680Z,1094.00
2023-04-20T09:00:11.596Z,1091.00
2023-04-20T09:01:09.686Z,1092.00
2023-04-20T09:02:09.702Z,1091.00
2023-04-20T09:03:09.784Z,1091.00
2023-04-20T09:04:09.916Z,1100.00
2023-04-20T09:05:09.658Z,1096.00
2023-04-20T09:06:09.718Z,1104.00
2023-04-20T09:07:09.623Z,1098.00
2023-04-20T09:08:09.652Z,1093.00
2023-04-20T09:09:09.615Z,1092.00
2023-04-20T09:10:09.564Z,1094.00
2023-04-20T09:11:09.569Z,1096.00
2023-04-20T09:12:09.563Z,1094.00
2023-04-20T09:13:09.584Z,1090.00
2023-04-20T09:14:10.197Z,1090.00
2023-04-20T09:15:09.585Z,1092.00
2023-04-20T09:16:09.554Z,1093.00
2023-04-20T09:17:09.573Z,1090.00
2023-04-20T09:18:09.544Z,1094.00
2023-04-20T09:19:10.430Z,1095.00
2023-04-20T09:20:09.505Z,1086.00
2023-04-20T09:21:09.491Z,1079.00
2023-04-20T09:22:09.573Z,1087.00
2023-04-20T09:23:09.504Z,1086.00
2023-04-20T09:24:09.591Z,1083.00
2023-04-20T09:25:09.612Z,1073.00
2023-04-20T09:26:09.657Z,1078.00
2023-04-20T09:27:09.718Z,1077.00
2023-04-20T09:28:09.838Z,1077.00
2023-04-20T09:29:09.881Z,1081.00
2023-04-20T09:30:09.938Z,1075.00
2023-04-20T09:31:09.964Z,1078.00
2023-04-20T09:32:10.074Z,1065.00
2023-04-20T09:33:10.111Z,1024.00
2023-04-20T09:34:10.642Z,1066.00
2023-04-20T09:35:10.219Z,1043.00
2023-04-20T09:36:10.276Z,1033.00
2023-04-20T09:37:10.324Z,1052.00
2023-04-20T09:38:10.414Z,1053.00
2023-04-20T09:39:11.141Z,1070.00
2023-04-20T09:40:10.532Z,1041.00
2023-04-20T09:41:10.558Z,1054.00
2023-04-20T09:42:10.591Z,1053.00
2023-04-20T09:43:10.634Z,1073.00
2023-04-20T09:44:11.117Z,1095.00
2023-04-20T09:45:10.739Z,1118.00
2023-04-20T09:46:10.774Z,1147.00
2023-04-20T09:47:10.772Z,1139.00
2023-04-20T09:48:10.819Z,1170.00
2023-04-20T09:49:11.119Z,1203.00
2023-04-20T09:50:24.785Z,1195.00
2023-04-20T09:51:11.844Z,1197.00
2023-04-20T09:52:10.884Z,1201.00
2023-04-20T09:53:10.839Z,1217.00
2023-04-20T09:54:10.924Z,1240.00
2023-04-20T09:55:10.930Z,1317.00
2023-04-20T09:56:10.815Z,1293.00
2023-04-20T09:57:10.816Z,1343.00
2023-04-20T09:58:10.877Z,1315.00
2023-04-20T09:59:10.833Z,1351.00
2023-04-20T10:00:10.835Z,1360.00
2023-04-20T10:01:10.821Z,1357.00
2023-04-20T10:02:10.902Z,1355.00
2023-04-20T10:03:11.026Z,1451.00
2023-04-20T10:04:11.044Z,1384.00
2023-04-20T10:05:10.736Z,1330.00
2023-04-20T10:06:10.753Z,1303.00
2023-04-20T10:07:10.756Z,1227.00
2023-04-20T10:08:10.718Z,1216.00
2023-04-20T10:09:10.719Z,1251.00
2023-04-20T10:10:10.736Z,1236.00
2023-04-20T10:11:10.796Z,1179.00
2023-04-20T10:12:10.696Z,1143.00
2023-04-20T10:13:10.682Z,1114.00
2023-04-20T10:14:10.719Z,1068.00
2023-04-20T10:15:10.746Z,1001.00
2023-04-20T10:16:10.773Z,770.00
2023-04-20T10:17:10.814Z,582.00
2023-04-20T10:18:10.793Z,522.00
2023-04-20T10:19:10.668Z,500.00
2023-04-20T10:20:10.697Z,500.00
2023-04-20T10:21:10.654Z,498.00
2023-04-20T10:22:10.632Z,498.00
2023-04-20T10:23:10.663Z,501.00
2023-04-20T10:24:10.713Z,500.00
2023-04-20T10:25:10.819Z,504.00
2023-04-20T10:26:10.826Z,504.00
2023-04-20T10:27:10.891Z,521.00
2023-04-20T10:28:11.004Z,499.00
2023-04-20T10:29:11.012Z,515.00
2023-04-20T10:30:11.155Z,522.00
2023-04-20T10:31:11.153Z,569.00
2023-04-20T10:32:11.148Z,610.00
2023-04-20T10:33:11.482Z,626.00
2023-04-20T10:34:11.227Z,594.00
2023-04-20T10:35:11.686Z,621.00
2023-04-20T10:36:11.309Z,617.00
2023-04-20T10:37:11.336Z,633.00
2023-04-20T10:38:11.373Z,649.00
2023-04-20T10:39:11.366Z,658.00
2023-04-20T10:40:11.707Z,669.00
2023-04-20T10:41:11.456Z,707.00
2023-04-20T10:42:11.458Z,714.00
2023-04-20T10:43:11.420Z,760.00
2023-04-20T10:44:11.482Z,778.00
2023-04-20T10:45:11.693Z,797.00
2023-04-20T10:46:11.512Z,818.00
2023-04-20T10:47:11.476Z,811.00
2023-04-20T10:48:13.124Z,824.00
2023-04-20T10:49:11.423Z,851.00
2023-04-20T10:50:11.486Z,855.00
2023-04-20T10:51:11.632Z,859.00
2023-04-20T10:52:11.585Z,872.00
2023-04-20T10:53:11.485Z,886.00
2023-04-20T10:54:11.583Z,875.00
2023-04-20T10:55:11.529Z,876.00
2023-04-20T10:56:11.587Z,907.00
2023-04-20T10:57:11.608Z,905.00
2023-04-20T10:58:11.629Z,912.00
2023-04-20T10:59:12.179Z,926.00
2023-04-20T11:00:11.702Z,929.00
2023-04-20T11:01:11.664Z,933.00
2023-04-20T11:02:11.858Z,930.00
2023-04-20T11:03:11.778Z,938.00
2023-04-20T11:04:11.783Z,932.00
2023-04-20T11:05:11.918Z,934.00
2023-04-20T11:06:11.780Z,962.00
2023-04-20T11:07:11.813Z,948.00
2023-04-20T11:08:12.659Z,955.00
2023-04-20T11:09:11.833Z,946.00
2023-04-20T11:10:11.868Z,959.00
2023-04-20T11:11:11.966Z,958.00
2023-04-20T11:12:11.961Z,968.00
2023-04-20T11:13:11.971Z,970.00
2023-04-20T11:14:12.041Z,960.00
2023-04-20T11:15:12.052Z,981.00
2023-04-20T11:16:12.050Z,985.00
2023-04-20T11:17:12.170Z,1009.00
2023-04-20T11:18:12.198Z,1005.00
2023-04-20T11:19:12.168Z,1016.00
2023-04-20T11:20:12.157Z,1010.00
2023-04-20T11:21:12.227Z,1027.00
2023-04-20T11:22:12.336Z,1035.00
2023-04-20T11:23:12.194Z,1028.00
2023-04-20T11:24:12.219Z,1040.00
2023-04-20T11:25:12.242Z,1041.00
2023-04-20T11:26:12.231Z,1042.00
2023-04-20T11:27:12.253Z,1049.00
2023-04-20T11:28:12.236Z,1043.00
2023-04-20T11:29:12.317Z,1047.00
2023-04-20T11:30:12.296Z,1053.00
2023-04-20T11:31:12.327Z,1038.00
2023-04-20T11:32:12.407Z,1061.00
2023-04-20T11:33:12.493Z,1049.00
2023-04-20T11:34:12.347Z,1055.00
2023-04-20T11:35:12.325Z,1061.00
2023-04-20T11:36:12.339Z,1065.00
2023-04-20T11:37:12.354Z,1065.00
2023-04-20T11:38:12.370Z,1071.00
2023-04-20T11:39:12.392Z,1064.00
2023-04-20T11:40:12.669Z,1073.00
2023-04-20T11:41:12.430Z,1075.00
2023-04-20T11:42:12.518Z,1075.00
2023-04-20T11:43:12.522Z,1070.00
2023-04-20T11:44:12.535Z,1068.00
2023-04-20T11:45:12.663Z,1078.00
2023-04-20T11:46:12.670Z,1069.00
2023-04-20T11:47:12.632Z,1064.00
2023-04-20T11:48:12.650Z,1068.00
2023-04-20T11:49:12.707Z,1075.00
2023-04-20T11:50:13.196Z,1070.00
2023-04-20T11:51:12.781Z,1073.00
2023-04-20T11:52:12.747Z,1070.00
2023-04-20T11:53:12.783Z,1064.00
2023-04-20T11:54:12.872Z,1073.00
2023-04-20T11:55:13.204Z,1080.00
2023-04-20T11:56:12.801Z,1080.00
2023-04-20T11:57:12.833Z,1064.00
2023-04-20T11:58:13.681Z,1061.00
2023-04-20T11:59:12.864Z,1072.00
2023-04-20T12:00:13.167Z,1074.00
2023-04-20T12:01:12.871Z,1068.00
2023-04-20T12:02:12.992Z,1066.00
2023-04-20T12:03:13.090Z,1079.00
2023-04-20T12:04:13.072Z,1058.00
2023-04-20T12:05:13.305Z,1069.00
2023-04-20T12:06:12.998Z,1055.00
2023-04-20T12:07:12.989Z,1065.00
2023-04-20T12:08:13.061Z,1061.00
2023-04-20T12:09:13.043Z,1065.00
2023-04-20T12:10:13.117Z,1054.00
2023-04-20T12:11:13.078Z,1055.00
2023-04-20T12:12:13.067Z,1081.00
2023-04-20T12:13:13.091Z,1070.00
2023-04-20T12:14:13.144Z,1044.00
2023-04-20T12:15:13.185Z,1057.00
2023-04-20T12:16:13.332Z,1062.00
2023-04-20T12:17:13.201Z,1058.00
2023-04-20T12:18:13.286Z,1061.00
2023-04-20T12:19:13.312Z,1061.00
2023-04-20T12:20:13.433Z,1057.00
2023-04-20T12:21:13.379Z,1053.00
2023-04-20T12:22:13.458Z,1054.00